Time;durP1;ratioP1;P1;durP2;ratioP2;P2;SDS_P1;SDS_P2;PMS_P1;PMS_P2;Temp;Humidity;BMP_temperature;BMP_pressure;BME280_temperature;BME280_humidity;BME280_pressure;Samples;Min_cycle;Max_cycle;Signal;HPM_P1;HPM_P2
2023/09/17 00:00:44;;;;;;;17.47;14.07;;;16.00;99.90;;;;;;5074599;28;20052;-70
2023/09/17 00:03:10;;;;;;;17.77;15.60;;;16.00;99.90;;;;;;5074755;28;20050;-69
2023/09/17 00:05:36;;;;;;;17.53;15.53;;;16.00;99.90;;;;;;5074567;28;20048;-69
2023/09/17 00:08:03;;;;;;;17.30;15.20;;;16.00;99.90;;;;;;5074872;28;20125;-70
2023/09/17 00:10:30;;;;;;;18.13;16.23;;;16.00;99.90;;;;;;5074265;28;20484;-69
2023/09/17 00:12:56;;;;;;;17.03;15.37;;;15.90;99.90;;;;;;5074708;28;20040;-69
2023/09/17 00:15:23;;;;;;;17.90;16.10;;;15.90;99.90;;;;;;5074733;28;20048;-70
2023/09/17 00:17:49;;;;;;;18.10;16.30;;;15.90;99.90;;;;;;5074497;28;20048;-69
2023/09/17 00:20:15;;;;;;;18.70;16.80;;;15.90;99.90;;;;;;5074617;28;20044;-69
2023/09/17 00:22:41;;;;;;;20.07;16.67;;;15.80;99.90;;;;;;5073896;28;20454;-69
2023/09/17 00:25:07;;;;;;;18.90;17.00;;;15.80;99.90;;;;;;5074607;28;20045;-69
2023/09/17 00:27:33;;;;;;;18.87;16.87;;;15.80;99.90;;;;;;5073034;28;20407;-70
2023/09/17 00:29:59;;;;;;;24.27;17.70;;;15.80;99.90;;;;;;5074374;28;20048;-69
2023/09/17 00:32:25;;;;;;;23.17;19.77;;;15.70;99.90;;;;;;5073967;28;20037;-69
2023/09/17 00:34:51;;;;;;;22.40;20.10;;;15.70;99.90;;;;;;5074523;28;20045;-69
2023/09/17 00:37:18;;;;;;;25.27;21.03;;;15.70;99.90;;;;;;5074341;28;20047;-70
2023/09/17 00:39:44;;;;;;;25.53;21.83;;;15.70;99.90;;;;;;5073959;28;20349;-70
2023/09/17 00:42:10;;;;;;;25.70;23.00;;;15.70;99.90;;;;;;5074089;28;20048;-69
2023/09/17 00:44:36;;;;;;;21.90;19.67;;;15.70;99.90;;;;;;5073344;28;20079;-70
2023/09/17 00:47:04;;;;;;;23.13;19.23;;;15.80;99.90;;;;;;5073942;28;20087;-69
2023/09/17 00:49:32;;;;;;;22.37;19.97;;;15.80;99.90;;;;;;5073780;28;20095;-70
2023/09/17 00:51:58;;;;;;;23.50;19.93;;;15.80;99.90;;;;;;5073395;28;20408;-69
2023/09/17 00:54:27;;;;;;;22.10;19.73;;;15.80;99.90;;;;;;5074067;28;20064;-69
2023/09/17 00:56:54;;;;;;;23.43;19.80;;;15.80;99.90;;;;;;5073618;28;20105;-69
2023/09/17 00:59:20;;;;;;;20.90;18.50;;;15.80;99.90;;;;;;5073792;28;20094;-69
2023/09/17 01:01:46;;;;;;;23.47;20.93;;;15.80;99.90;;;;;;5073437;28;20052;-70
2023/09/17 01:04:15;;;;;;;22.63;19.20;;;15.80;99.90;;;;;;5073684;28;20045;-70
2023/09/17 01:06:41;;;;;;;21.67;17.70;;;15.80;99.90;;;;;;5072183;28;20047;-70
2023/09/17 01:09:08;;;;;;;20.00;17.90;;;15.90;99.90;;;;;;5073852;28;20040;-69
2023/09/17 01:11:35;;;;;;;23.67;18.60;;;15.90;99.90;;;;;;5073273;28;20053;-69
2023/09/17 01:14:15;;;;;;;22.60;19.53;;;16.00;99.90;;;;;;5073563;28;20049;-69
2023/09/17 01:16:45;;;;;;;23.13;20.20;;;16.00;99.90;;;;;;5073390;28;20060;-70
2023/09/17 01:19:38;;;;;;;21.83;19.47;;;16.00;99.90;;;;;;5072511;28;20442;-69
2023/09/17 01:22:13;;;;;;;22.60;20.33;;;16.10;99.90;;;;;;5071306;28;20059;-70
2023/09/17 01:25:04;;;;;;;22.20;19.83;;;16.10;99.90;;;;;;5073151;28;20056;-69
2023/09/17 01:27:32;;;;;;;23.00;19.87;;;16.10;99.90;;;;;;5073331;28;20377;-69
2023/09/17 01:29:58;;;;;;;22.47;20.17;;;16.10;99.90;;;;;;5073212;28;20131;-70
2023/09/17 01:32:24;;;;;;;22.93;19.03;;;16.10;99.90;;;;;;5071931;28;20135;-69
2023/09/17 01:34:53;;;;;;;24.77;21.93;;;16.10;99.90;;;;;;5071703;28;20052;-69
2023/09/17 01:37:32;;;;;;;23.43;20.93;;;16.00;99.90;;;;;;5073056;28;20091;-70
2023/09/17 01:40:06;;;;;;;26.13;20.53;;;16.10;99.90;;;;;;5072904;28;20048;-70
2023/09/17 01:42:34;;;;;;;24.45;22.08;;;16.10;99.90;;;;;;5073164;28;20386;-69
2023/09/17 01:45:00;;;;;;;24.33;21.73;;;16.10;99.90;;;;;;5073164;28;20040;-70
2023/09/17 01:47:27;;;;;;;24.67;21.73;;;16.10;99.90;;;;;;5073084;28;20049;-69
2023/09/17 01:49:57;;;;;;;24.03;21.43;;;16.10;99.90;;;;;;5072708;28;20044;-70
2023/09/17 01:52:32;;;;;;;23.07;20.40;;;16.10;99.90;;;;;;5072589;28;20072;-70
2023/09/17 01:54:58;;;;;;;;;;;16.20;99.90;;;;;;5073142;28;20052;-69
2023/09/17 01:57:23;;;;;;;25.70;22.63;;;16.10;99.90;;;;;;5072072;28;19920;-69
2023/09/17 01:59:49;;;;;;;28.07;22.80;;;16.10;99.90;;;;;;5072598;28;20113;-70
2023/09/17 02:02:15;;;;;;;25.20;22.43;;;16.10;99.90;;;;;;5072776;28;20131;-69
2023/09/17 02:04:41;;;;;;;28.10;23.03;;;16.20;99.90;;;;;;5072585;28;20127;-70
2023/09/17 02:07:07;;;;;;;26.70;23.87;;;16.20;99.90;;;;;;5072063;28;20140;-70
2023/09/17 02:09:33;;;;;;;27.03;23.73;;;16.20;99.90;;;;;;5071670;28;20060;-69
2023/09/17 02:11:59;;;;;;;25.47;22.77;;;16.20;99.90;;;;;;5071282;28;20041;-70
2023/09/17 02:14:24;;;;;;;25.43;22.73;;;16.20;99.90;;;;;;5072668;28;20469;-69
2023/09/17 02:16:51;;;;;;;27.80;24.90;;;16.20;99.90;;;;;;5072452;28;20132;-70
2023/09/17 02:19:17;;;;;;;26.77;24.20;;;16.20;99.90;;;;;;5072666;28;20049;-69
2023/09/17 02:21:42;;;;;;;26.07;23.47;;;16.20;99.90;;;;;;5072304;28;20045;-70
2023/09/17 02:24:08;;;;;;;25.97;23.33;;;16.20;99.90;;;;;;5072455;28;20477;-70
2023/09/17 02:26:34;;;;;;;26.83;24.00;;;16.20;99.90;;;;;;5072539;28;20135;-69
2023/09/17 02:29:00;;;;;;;26.67;23.97;;;16.20;99.90;;;;;;5072298;28;20052;-70
2023/09/17 02:31:25;;;;;;;29.77;25.93;;;16.20;99.90;;;;;;5072506;28;20052;-69
2023/09/17 02:33:51;;;;;;;27.67;24.77;;;16.20;99.90;;;;;;5072175;28;20043;-69
2023/09/17 02:36:17;;;;;;;27.87;24.97;;;16.20;99.90;;;;;;5072418;28;20105;-69
2023/09/17 02:38:42;;;;;;;27.77;24.73;;;16.20;99.90;;;;;;5072198;28;20044;-70
2023/09/17 02:41:08;;;;;;;30.30;26.40;;;16.20;99.90;;;;;;5072093;28;20044;-70
2023/09/17 02:43:36;;;;;;;30.90;26.93;;;16.20;99.90;;;;;;5072326;28;20045;-69
2023/09/17 02:46:03;;;;;;;30.83;26.20;;;16.20;99.90;;;;;;5072195;28;20064;-69
2023/09/17 02:48:32;;;;;;;31.40;28.20;;;16.30;99.90;;;;;;5072316;28;20106;-69
2023/09/17 02:50:58;;;;;;;29.23;26.17;;;16.30;99.90;;;;;;5072050;28;20185;-69
2023/09/17 02:53:24;;;;;;;29.50;26.43;;;16.30;99.90;;;;;;5071916;28;20056;-69
2023/09/17 02:55:49;;;;;;;30.20;26.47;;;16.20;99.90;;;;;;5071994;28;20052;-69
2023/09/17 02:58:15;;;;;;;31.83;27.57;;;16.30;99.90;;;;;;5071843;28;20489;-69
2023/09/17 03:00:43;;;;;;;29.50;26.60;;;16.30;99.90;;;;;;5072121;28;20040;-69
2023/09/17 03:03:09;;;;;;;30.57;27.43;;;16.30;99.90;;;;;;5071764;28;20041;-69
2023/09/17 03:05:34;;;;;;;29.53;26.40;;;16.30;99.90;;;;;;5072077;28;20055;-69
2023/09/17 03:08:00;;;;;;;28.97;26.07;;;16.30;99.90;;;;;;5073473;28;20032;-69
2023/09/17 03:10:26;;;;;;;29.87;26.77;;;16.30;99.90;;;;;;5075802;28;20493;-69
2023/09/17 03:12:52;;;;;;;30.03;26.80;;;16.30;99.90;;;;;;5075568;28;20093;-70
2023/09/17 03:15:18;;;;;;;29.77;26.67;;;16.30;99.90;;;;;;5076046;28;20048;-69
2023/09/17 03:17:44;;;;;;;29.77;26.77;;;16.30;99.90;;;;;;5075755;28;20051;-69
2023/09/17 03:20:14;;;;;;;33.00;29.43;;;16.30;99.90;;;;;;5075485;28;20428;-69
2023/09/17 03:22:40;;;;;;;30.47;27.37;;;16.30;99.90;;;;;;5074629;28;20378;-70
2023/09/17 03:25:06;;;;;;;32.80;29.17;;;16.30;99.90;;;;;;5075472;28;20171;-70
2023/09/17 03:27:33;;;;;;;33.30;28.00;;;16.30;99.90;;;;;;5074411;28;20048;-69
2023/09/17 03:30:03;;;;;;;33.60;30.30;;;16.30;99.90;;;;;;5075116;28;20131;-70
2023/09/17 03:32:29;;;;;;;31.80;28.60;;;16.30;99.90;;;;;;5075516;28;20377;-69
2023/09/17 03:34:55;;;;;;;31.67;28.37;;;16.30;99.90;;;;;;5075188;28;20048;-70
2023/09/17 03:37:21;;;;;;;30.57;27.57;;;16.30;99.90;;;;;;5074243;28;20054;-69
2023/09/17 03:40:14;;;;;;;32.97;29.67;;;16.30;99.90;;;;;;5075386;28;20049;-69
2023/09/17 03:42:42;;;;;;;31.67;28.43;;;16.30;99.90;;;;;;5074174;28;20044;-69
2023/09/17 03:45:11;;;;;;;31.30;28.17;;;16.40;99.90;;;;;;5075031;28;20040;-69
2023/09/17 03:47:41;;;;;;;32.13;28.77;;;16.30;99.90;;;;;;5075399;28;20119;-69
2023/09/17 03:50:13;;;;;;;31.30;28.20;;;16.40;99.90;;;;;;5075064;28;20041;-69
2023/09/17 03:52:42;;;;;;;32.97;29.80;;;16.40;99.90;;;;;;5073737;28;20125;-69
2023/09/17 03:55:08;;;;;;;30.80;27.73;;;16.40;99.90;;;;;;5074783;28;20063;-70
2023/09/17 03:57:36;;;;;;;32.13;28.73;;;16.40;99.90;;;;;;5075051;28;20054;-69
2023/09/17 04:00:06;;;;;;;32.03;28.73;;;16.40;99.90;;;;;;5074797;28;20066;-70
2023/09/17 04:02:35;;;;;;;31.90;28.57;;;16.40;99.90;;;;;;5075120;28;20097;-69
2023/09/17 04:05:07;;;;;;;30.80;27.70;;;16.40;99.90;;;;;;5074686;28;20447;-70
2023/09/17 04:07:33;;;;;;;32.80;29.40;;;16.40;99.90;;;;;;5073867;28;20064;-69
2023/09/17 04:09:58;;;;;;;32.63;29.33;;;16.40;99.90;;;;;;5074592;28;20052;-70
2023/09/17 04:12:24;;;;;;;31.43;28.23;;;16.40;99.90;;;;;;5075099;28;20044;-70
2023/09/17 04:14:50;;;;;;;33.17;29.60;;;16.40;99.90;;;;;;5074699;28;20053;-69
2023/09/17 04:17:16;;;;;;;30.63;27.63;;;16.40;99.90;;;;;;5074382;28;20083;-70
2023/09/17 04:19:41;;;;;;;32.03;28.80;;;16.50;99.90;;;;;;5072931;28;20127;-70
2023/09/17 04:22:07;;;;;;;32.13;28.77;;;16.40;99.90;;;;;;5056614;28;20052;-70
2023/09/17 04:24:32;;;;;;;31.03;27.73;;;16.50;99.90;;;;;;5074252;28;20048;-69
2023/09/17 04:26:58;;;;;;;31.97;28.57;;;16.50;99.90;;;;;;5073937;28;20101;-69
2023/09/17 04:29:24;;;;;;;33.63;30.17;;;16.50;99.90;;;;;;5074445;28;20481;-69
2023/09/17 04:31:51;;;;;;;31.83;28.33;;;16.50;99.90;;;;;;5074448;28;20048;-69
2023/09/17 04:34:18;;;;;;;35.03;30.23;;;16.50;99.90;;;;;;5074062;28;20124;-69
2023/09/17 04:36:43;;;;;;;32.27;29.17;;;16.50;99.90;;;;;;5074311;28;20132;-69
2023/09/17 04:39:10;;;;;;;32.83;29.37;;;16.50;99.90;;;;;;5073905;28;20119;-70
2023/09/17 04:41:37;;;;;;;31.93;28.70;;;16.50;99.90;;;;;;5074207;28;20049;-69
2023/09/17 04:44:10;;;;;;;33.13;29.80;;;16.50;99.90;;;;;;5073988;28;20055;-69
2023/09/17 04:46:43;;;;;;;33.03;29.83;;;16.50;99.90;;;;;;5074417;28;20382;-69
2023/09/17 04:49:09;;;;;;;33.17;29.87;;;16.50;99.90;;;;;;5073765;28;20146;-70
2023/09/17 04:51:35;;;;;;;32.93;29.37;;;16.50;99.90;;;;;;5072660;28;20048;-69
2023/09/17 04:54:04;;;;;;;32.13;29.03;;;16.60;99.90;;;;;;5055323;28;20056;-70
2023/09/17 04:56:31;;;;;;;32.37;29.17;;;16.50;99.90;;;;;;5073970;28;20500;-69
2023/09/17 04:58:58;;;;;;;33.10;29.83;;;16.50;99.90;;;;;;5072883;28;20358;-69
2023/09/17 05:01:24;;;;;;;31.83;28.80;;;16.50;99.90;;;;;;5073810;28;20416;-69
2023/09/17 05:03:50;;;;;;;33.13;29.93;;;16.50;99.90;;;;;;5073685;28;20091;-70
2023/09/17 05:06:16;;;;;;;32.63;29.03;;;16.50;99.90;;;;;;5073469;28;20080;-70
2023/09/17 05:08:41;;;;;;;33.53;30.13;;;16.50;99.90;;;;;;5073894;28;20507;-69
2023/09/17 05:11:07;;;;;;;32.90;29.50;;;16.50;99.90;;;;;;5073359;28;20060;-70
2023/09/17 05:13:33;;;;;;;32.93;29.57;;;16.50;99.90;;;;;;5073544;28;20036;-69
2023/09/17 05:15:59;;;;;;;31.40;28.40;;;16.50;99.90;;;;;;5073562;28;20055;-69
2023/09/17 05:18:24;;;;;;;31.80;28.80;;;16.40;99.90;;;;;;5073153;28;20049;-69
2023/09/17 05:20:53;;;;;;;32.20;29.00;;;16.40;99.90;;;;;;5073430;28;20079;-69
2023/09/17 05:23:20;;;;;;;31.87;28.53;;;16.40;99.90;;;;;;5073363;28;20041;-70
2023/09/17 05:25:45;;;;;;;35.23;28.97;;;16.40;99.90;;;;;;5073544;28;20067;-69
2023/09/17 05:28:11;;;;;;;30.47;27.47;;;16.40;99.90;;;;;;5073010;28;20044;-70
2023/09/17 05:30:37;;;;;;;30.93;27.93;;;16.40;99.90;;;;;;5073343;28;20210;-69
2023/09/17 05:33:04;;;;;;;31.27;28.07;;;16.40;99.90;;;;;;5071784;28;20462;-70
2023/09/17 05:35:30;;;;;;;31.90;28.70;;;16.40;99.90;;;;;;5072219;28;20186;-70
2023/09/17 05:37:56;;;;;;;30.17;27.37;;;16.40;99.90;;;;;;5073247;28;20090;-69
2023/09/17 05:40:22;;;;;;;29.63;26.63;;;16.40;99.90;;;;;;5072801;28;20051;-70
2023/09/17 05:42:48;;;;;;;29.07;26.10;;;16.40;99.90;;;;;;5073073;28;20045;-69
2023/09/17 05:45:14;;;;;;;30.23;27.33;;;16.40;99.90;;;;;;5072814;28;20156;-70
2023/09/17 05:47:41;;;;;;;29.87;26.77;;;16.50;99.90;;;;;;5073040;28;20133;-69
2023/09/17 05:50:08;;;;;;;30.83;27.57;;;16.50;99.90;;;;;;5072760;28;20127;-70
2023/09/17 05:52:33;;;;;;;30.17;26.97;;;16.50;99.90;;;;;;5072822;28;20460;-69
2023/09/17 05:55:00;;;;;;;29.60;26.80;;;16.50;99.90;;;;;;5072568;28;20056;-69
2023/09/17 05:57:26;;;;;;;28.87;25.80;;;16.50;99.90;;;;;;5072323;28;20488;-69
2023/09/17 05:59:52;;;;;;;28.07;25.47;;;16.50;99.90;;;;;;5072898;28;20117;-69
2023/09/17 06:02:18;;;;;;;29.60;26.63;;;16.50;99.90;;;;;;5072583;28;20044;-69
2023/09/17 06:04:47;;;;;;;29.80;26.80;;;16.50;99.90;;;;;;5073002;28;20345;-69
2023/09/17 06:07:14;;;;;;;30.00;27.10;;;16.50;99.90;;;;;;5071540;28;20106;-70
2023/09/17 06:09:40;;;;;;;28.63;25.77;;;16.50;99.90;;;;;;5073016;28;20049;-69
2023/09/17 06:12:06;;;;;;;29.70;26.60;;;16.50;99.90;;;;;;5072821;28;20098;-69
2023/09/17 06:14:32;;;;;;;29.43;26.53;;;16.50;99.90;;;;;;5070738;28;20046;-69
2023/09/17 06:16:57;;;;;;;29.80;26.83;;;16.50;99.90;;;;;;5072730;28;20052;-69
2023/09/17 06:19:23;;;;;;;30.20;27.10;;;16.60;99.90;;;;;;5072369;28;20044;-69
2023/09/17 06:21:49;;;;;;;28.50;25.83;;;16.60;99.90;;;;;;5071395;28;20044;-69
2023/09/17 06:24:14;;;;;;;30.27;27.27;;;16.60;99.90;;;;;;5072343;28;20044;-70
2023/09/17 06:26:41;;;;;;;30.97;27.97;;;16.60;99.90;;;;;;5072565;28;20476;-69
2023/09/17 06:29:07;;;;;;;31.13;28.03;;;16.60;99.90;;;;;;5072510;28;20174;-69
2023/09/17 06:31:33;;;;;;;31.17;28.07;;;16.70;99.90;;;;;;5072348;28;20486;-69
2023/09/17 06:33:58;;;;;;;29.70;26.80;;;16.70;99.90;;;;;;5071381;28;20052;-69
2023/09/17 06:36:24;;;;;;;28.80;26.07;;;16.80;99.90;;;;;;5072215;28;20048;-70
2023/09/17 06:38:50;;;;;;;31.13;27.63;;;16.80;99.90;;;;;;5071464;28;20094;-70
2023/09/17 06:41:16;;;;;;;30.80;27.70;;;16.80;99.90;;;;;;5072290;28;20090;-70
2023/09/17 06:43:41;;;;;;;29.23;26.33;;;16.80;99.90;;;;;;5075183;28;20040;-74
2023/09/17 06:46:07;;;;;;;31.00;27.90;;;16.90;99.90;;;;;;5074685;28;20052;-70
2023/09/17 06:48:33;;;;;;;30.37;27.33;;;16.90;99.90;;;;;;5075131;28;20110;-70
2023/09/17 06:50:59;;;;;;;31.37;28.43;;;16.90;99.90;;;;;;5058445;28;20044;-70
2023/09/17 06:53:25;;;;;;;30.47;27.47;;;17.00;99.90;;;;;;5058104;28;20057;-70
2023/09/17 06:55:50;;;;;;;30.67;27.67;;;17.00;99.90;;;;;;5076283;28;20053;-70
2023/09/17 06:58:16;;;;;;;31.20;28.17;;;17.00;99.90;;;;;;5075987;28;20040;-70
2023/09/17 07:00:43;;;;;;;31.93;28.83;;;17.10;99.90;;;;;;5075289;28;20056;-69
2023/09/17 07:03:09;;;;;;;29.77;26.87;;;17.10;99.90;;;;;;5075976;28;20033;-70
2023/09/17 07:05:35;;;;;;;31.20;27.43;;;17.20;99.90;;;;;;5075763;28;20048;-71
2023/09/17 07:08:01;;;;;;;29.83;26.93;;;17.30;99.90;;;;;;5075044;28;20571;-71
2023/09/17 07:10:26;;;;;;;29.50;26.63;;;17.30;99.90;;;;;;5075752;28;20040;-71
2023/09/17 07:12:52;;;;;;;29.53;26.83;;;17.20;99.90;;;;;;5074960;28;20044;-71
2023/09/17 07:15:20;;;;;;;30.83;27.63;;;17.30;99.90;;;;;;5075313;28;20080;-71
2023/09/17 07:17:46;;;;;;;29.10;26.33;;;17.20;99.90;;;;;;5075700;28;20044;-71
2023/09/17 07:20:13;;;;;;;29.67;26.97;;;17.20;99.90;;;;;;5074535;28;20040;-71
2023/09/17 07:22:41;;;;;;;28.13;25.53;;;17.20;99.90;;;;;;5075484;28;20041;-70
2023/09/17 07:25:07;;;;;;;28.83;26.03;;;17.20;99.90;;;;;;5074393;28;20054;-70
2023/09/17 07:27:33;;;;;;;29.03;26.23;;;17.20;99.90;;;;;;5075386;28;20127;-70
2023/09/17 07:29:59;;;;;;;31.03;28.13;;;17.20;99.90;;;;;;5075544;28;20063;-71
2023/09/17 07:32:29;;;;;;;31.00;27.43;;;17.20;99.90;;;;;;5075338;28;20059;-71
2023/09/17 07:34:55;;;;;;;31.50;28.43;;;17.30;99.90;;;;;;5075277;28;20048;-70
2023/09/17 07:37:22;;;;;;;29.83;26.77;;;17.30;99.90;;;;;;5075321;28;20060;-71
2023/09/17 07:39:55;;;;;;;30.07;27.07;;;17.30;99.90;;;;;;5074239;28;20060;-70
2023/09/17 07:42:21;;;;;;;30.57;27.47;;;17.30;99.90;;;;;;5075202;28;20060;-70
2023/09/17 07:44:47;;;;;;;31.30;28.10;;;17.20;99.90;;;;;;5075655;28;20044;-70
2023/09/17 07:47:12;;;;;;;31.67;28.77;;;17.30;99.90;;;;;;5074321;28;20473;-70
2023/09/17 07:49:39;;;;;;;29.80;26.93;;;17.30;99.90;;;;;;5074940;28;20040;-70
2023/09/17 07:52:05;;;;;;;30.17;27.37;;;17.30;99.90;;;;;;5075212;28;20043;-70
2023/09/17 07:54:40;;;;;;;29.80;26.83;;;17.30;99.90;;;;;;5073679;28;20059;-70
2023/09/17 07:57:07;;;;;;;29.47;26.50;;;17.30;99.90;;;;;;5075190;28;20118;-70
2023/09/17 07:59:33;;;;;;;30.40;27.40;;;17.30;99.90;;;;;;5073771;28;20131;-71
2023/09/17 08:01:59;;;;;;;31.17;27.80;;;17.30;99.90;;;;;;5074907;28;20127;-70
2023/09/17 08:04:25;;;;;;;32.03;28.90;;;17.30;99.90;;;;;;5074689;28;20485;-71
2023/09/17 08:06:51;;;;;;;30.20;27.23;;;17.30;99.90;;;;;;5057295;28;20048;-70
2023/09/17 08:09:17;;;;;;;30.30;27.33;;;17.30;99.90;;;;;;5074617;28;20080;-69
2023/09/17 08:11:43;;;;;;;32.20;29.00;;;17.30;99.90;;;;;;5074575;28;20087;-71
2023/09/17 08:14:10;;;;;;;29.37;26.57;;;17.30;99.90;;;;;;5074619;28;20119;-70
2023/09/17 08:16:36;;;;;;;30.87;27.97;;;17.30;99.90;;;;;;5074312;28;20080;-70
2023/09/17 08:19:02;;;;;;;31.70;28.73;;;17.30;99.90;;;;;;5073400;28;20135;-71
2023/09/17 08:21:28;;;;;;;33.83;30.23;;;17.30;99.90;;;;;;5073217;28;20508;-71
2023/09/17 08:23:55;;;;;;;30.30;27.50;;;17.30;99.90;;;;;;5074546;28;20040;-71
2023/09/17 08:26:22;;;;;;;32.10;28.70;;;17.30;99.90;;;;;;5074554;28;20045;-71
2023/09/17 08:28:49;;;;;;;32.43;29.43;;;17.30;99.90;;;;;;5074165;28;20048;-70
2023/09/17 08:31:16;;;;;;;33.93;30.57;;;17.30;99.90;;;;;;5074106;28;20062;-71
2023/09/17 08:33:45;;;;;;;33.33;29.83;;;17.30;99.90;;;;;;5073769;28;20187;-70
2023/09/17 08:36:11;;;;;;;33.97;30.57;;;17.20;99.90;;;;;;5074213;28;20049;-70
2023/09/17 08:38:37;;;;;;;35.53;32.13;;;17.20;99.90;;;;;;5072943;28;20048;-70
2023/09/17 08:41:06;;;;;;;34.10;30.57;;;17.20;99.90;;;;;;5074078;28;20127;-70
2023/09/17 08:43:32;;;;;;;34.93;31.23;;;17.20;99.90;;;;;;5073857;28;20056;-70
2023/09/17 08:46:03;;;;;;;35.47;32.07;;;17.20;99.90;;;;;;5074258;28;20174;-70
2023/09/17 08:48:29;;;;;;;37.03;33.30;;;17.20;99.90;;;;;;5073914;28;20044;-71
2023/09/17 08:50:58;;;;;;;37.80;33.83;;;17.20;99.90;;;;;;5074162;28;20408;-71
2023/09/17 08:53:30;;;;;;;36.90;33.10;;;17.20;99.90;;;;;;5074272;28;20056;-69
2023/09/17 08:55:57;;;;;;;39.00;34.87;;;17.20;99.90;;;;;;5074011;28;20055;-69
2023/09/17 08:58:31;;;;;;;39.63;35.40;;;17.10;99.90;;;;;;5073971;28;20059;-69
2023/09/17 09:01:03;;;;;;;39.85;35.85;;;17.10;99.90;;;;;;5056464;28;20052;-70
2023/09/17 09:03:33;;;;;;;40.17;36.13;;;17.10;99.90;;;;;;5073522;28;20041;-71
2023/09/17 09:06:00;;;;;;;42.33;37.20;;;17.00;99.90;;;;;;5073358;28;20048;-70
2023/09/17 09:08:27;;;;;;;45.73;41.00;;;17.00;99.90;;;;;;5072470;28;20425;-74
2023/09/17 09:10:53;;;;;;;48.70;40.13;;;17.00;99.90;;;;;;5073376;28;20047;-70
2023/09/17 09:13:21;;;;;;;46.13;41.20;;;16.90;99.90;;;;;;5073752;28;20043;-70
2023/09/17 09:15:47;;;;;;;47.30;41.27;;;17.00;99.90;;;;;;5073253;28;20358;-70
2023/09/17 09:18:13;;;;;;;48.40;43.13;;;16.90;99.90;;;;;;5073480;28;20064;-71
2023/09/17 09:20:40;;;;;;;51.03;43.27;;;16.90;99.90;;;;;;5073364;28;20055;-72
2023/09/17 09:23:07;;;;;;;53.33;44.23;;;17.00;99.90;;;;;;5072494;28;20124;-72
2023/09/17 09:25:34;;;;;;;57.57;45.53;;;17.00;99.90;;;;;;5073102;28;20052;-70
2023/09/17 09:28:00;;;;;;;57.10;47.70;;;17.00;99.90;;;;;;5073584;28;20097;-69
2023/09/17 09:30:27;;;;;;;54.83;45.03;;;17.00;99.90;;;;;;5073451;28;20502;-71
2023/09/17 09:32:52;;;;;;;56.77;47.43;;;17.00;99.90;;;;;;5073074;28;20048;-71
2023/09/17 09:35:19;;;;;;;57.93;47.40;;;17.00;99.90;;;;;;5073335;28;20182;-70
2023/09/17 09:37:45;;;;;;;53.43;46.27;;;17.00;99.90;;;;;;5072946;28;20049;-70
2023/09/17 09:40:14;;;;;;;57.00;46.73;;;17.00;99.90;;;;;;5072214;28;20469;-69
2023/09/17 09:42:42;;;;;;;64.87;49.80;;;17.00;99.90;;;;;;5072867;28;20051;-69
2023/09/17 09:45:15;;;;;;;65.00;49.60;;;17.00;99.90;;;;;;5072783;28;20093;-70
2023/09/17 09:47:49;;;;;;;59.87;48.57;;;17.00;99.90;;;;;;5072813;28;20053;-70
2023/09/17 09:50:23;;;;;;;60.90;49.10;;;17.00;99.90;;;;;;5073368;28;20037;-69
2023/09/17 09:52:49;;;;;;;60.80;48.97;;;17.00;99.90;;;;;;5072525;28;20279;-68
2023/09/17 09:55:14;;;;;;;61.50;47.43;;;17.00;99.90;;;;;;5073063;28;20067;-69
2023/09/17 09:57:42;;;;;;;65.63;49.93;;;16.90;99.90;;;;;;5071748;28;20048;-69
2023/09/17 10:00:18;;;;;;;66.23;50.10;;;16.90;99.90;;;;;;5072581;28;20476;-68
2023/09/17 10:02:46;;;;;;;62.93;49.33;;;16.90;99.90;;;;;;5072272;28;20473;-69
2023/09/17 10:05:16;;;;;;;64.83;49.47;;;16.80;99.90;;;;;;5072762;28;20044;-69
2023/09/17 10:07:45;;;;;;;73.40;51.13;;;16.80;99.90;;;;;;5072636;28;20086;-68
2023/09/17 10:10:11;;;;;;;69.73;50.93;;;16.80;99.90;;;;;;5072716;28;20124;-68
2023/09/17 10:12:37;;;;;;;71.57;50.67;;;16.80;99.90;;;;;;5071473;28;20056;-69
2023/09/17 10:15:05;;;;;;;71.23;50.60;;;16.80;99.90;;;;;;5071555;28;20382;-68
2023/09/17 10:17:35;;;;;;;65.93;48.77;;;16.80;99.90;;;;;;5070397;28;20049;-67
2023/09/17 10:20:06;;;;;;;73.70;50.60;;;16.80;99.90;;;;;;5072110;28;20401;-70
2023/09/17 10:22:35;;;;;;;76.07;51.60;;;16.80;99.90;;;;;;5072708;28;20048;-70
2023/09/17 10:25:08;;;;;;;45.87;37.67;;;16.90;99.90;;;;;;5072361;28;20045;-71
2023/09/17 10:27:36;;;;;;;44.93;37.93;;;16.90;99.90;;;;;;5072705;28;20049;-71
2023/09/17 10:30:04;;;;;;;43.17;38.40;;;16.90;99.90;;;;;;5072311;28;20056;-73
2023/09/17 10:32:35;;;;;;;47.20;39.47;;;16.90;99.90;;;;;;5055013;28;20084;-67
2023/09/17 10:35:02;;;;;;;40.83;36.43;;;16.90;99.90;;;;;;5072414;28;20091;-68
2023/09/17 10:37:31;;;;;;;32.63;27.40;;;16.90;99.90;;;;;;5072608;28;20114;-71
2023/09/17 10:39:58;;;;;;;32.03;28.63;;;16.90;99.90;;;;;;5072244;28;20054;-71
2023/09/17 10:42:25;;;;;;;30.90;27.63;;;16.80;99.90;;;;;;5072417;28;20396;-71
2023/09/17 10:44:56;;;;;;;33.20;28.20;;;16.80;99.90;;;;;;5071264;28;20132;-71
2023/09/17 10:47:24;;;;;;;28.63;25.03;;;16.80;99.90;;;;;;5071276;28;20495;-71
2023/09/17 10:49:51;;;;;;;27.70;24.67;;;16.70;99.90;;;;;;5072165;28;20041;-71
2023/09/17 10:52:17;;;;;;;27.73;24.30;;;16.70;99.90;;;;;;5072377;28;20041;-71
2023/09/17 10:54:44;;;;;;;24.40;21.40;;;16.60;99.90;;;;;;5071955;28;20060;-71
2023/09/17 10:57:23;;;;;;;26.50;23.23;;;16.60;99.90;;;;;;5072316;28;20052;-71
2023/09/17 10:59:51;;;;;;;24.60;21.97;;;16.60;99.90;;;;;;5072113;28;20453;-71
2023/09/17 11:02:18;;;;;;;25.17;22.33;;;16.60;99.90;;;;;;5071029;28;20439;-72
2023/09/17 11:04:45;;;;;;;26.20;23.40;;;16.60;99.90;;;;;;5072075;28;20083;-71
2023/09/17 11:07:11;;;;;;;24.80;22.27;;;16.60;99.90;;;;;;5072227;28;20154;-69
2023/09/17 11:09:37;;;;;;;24.07;21.50;;;16.70;99.90;;;;;;5072246;28;20056;-69
2023/09/17 11:12:03;;;;;;;25.73;23.13;;;16.70;99.90;;;;;;5071945;28;20064;-69
2023/09/17 11:14:30;;;;;;;28.67;25.07;;;16.80;99.90;;;;;;5072152;28;20041;-69
2023/09/17 11:16:56;;;;;;;25.43;22.83;;;16.80;99.90;;;;;;5071892;28;20036;-69
2023/09/17 11:19:22;;;;;;;30.53;24.10;;;16.80;99.90;;;;;;5072208;28;20086;-69
2023/09/17 11:22:06;;;;;;;28.77;25.73;;;16.80;99.90;;;;;;5071810;28;20133;-68
2023/09/17 11:24:32;;;;;;;28.27;25.07;;;16.80;99.90;;;;;;5071782;28;20500;-69
2023/09/17 11:27:04;;;;;;;29.93;26.83;;;16.80;99.90;;;;;;5070285;28;20139;-71
2023/09/17 11:29:44;;;;;;;30.70;27.40;;;16.80;99.90;;;;;;5074165;28;20053;-68
2023/09/17 11:32:11;;;;;;;33.87;29.77;;;16.80;99.90;;;;;;5075344;28;20092;-72
2023/09/17 11:34:38;;;;;;;35.43;31.00;;;16.90;99.90;;;;;;5074224;28;20044;-67
2023/09/17 11:37:05;;;;;;;32.43;28.93;;;17.00;99.90;;;;;;5074441;28;20080;-70
2023/09/17 11:39:35;;;;;;;32.63;29.00;;;17.10;99.90;;;;;;5074770;28;20044;-68
2023/09/17 11:42:12;;;;;;;31.50;27.53;;;17.20;99.90;;;;;;5075135;28;20102;-70
2023/09/17 11:44:40;;;;;;;34.50;29.87;;;17.30;99.90;;;;;;5075452;28;20052;-69
2023/09/17 11:47:07;;;;;;;30.53;27.23;;;17.30;99.90;;;;;;5075091;28;20056;-71
2023/09/17 11:49:34;;;;;;;31.57;27.97;;;17.40;99.90;;;;;;5075268;28;20132;-70
2023/09/17 11:51:59;;;;;;;31.87;28.77;;;17.40;99.90;;;;;;5074995;28;20041;-71
2023/09/17 11:54:39;;;;;;;31.83;28.47;;;17.50;99.90;;;;;;5074872;28;20059;-70
2023/09/17 11:57:04;;;;;;;31.13;27.93;;;17.60;99.90;;;;;;5074131;28;20497;-67
2023/09/17 11:59:37;;;;;;;28.90;25.90;;;17.60;99.90;;;;;;5075450;28;20044;-68
2023/09/17 12:02:05;;;;;;;30.83;27.73;;;17.70;99.90;;;;;;5074786;28;20041;-69
2023/09/17 12:04:37;;;;;;;29.33;26.27;;;17.70;99.90;;;;;;5075051;28;20127;-69
2023/09/17 12:07:08;;;;;;;29.93;26.77;;;17.70;99.90;;;;;;5057075;28;20060;-69
2023/09/17 12:12:06;;;;;;;35.23;30.23;;;17.60;99.90;;;;;;5073994;28;20127;-70
2023/09/17 12:14:33;;;;;;;31.37;28.07;;;17.60;99.90;;;;;;5074749;28;20048;-69
2023/09/17 12:16:58;;;;;;;32.30;29.00;;;17.50;99.90;;;;;;5074456;28;20044;-69
2023/09/17 12:19:25;;;;;;;34.60;30.67;;;17.50;99.90;;;;;;5074656;28;20457;-69
2023/09/17 12:21:53;;;;;;;35.50;31.47;;;17.50;99.90;;;;;;5074626;28;20052;-69
2023/09/17 12:24:44;;;;;;;35.63;30.93;;;17.50;99.90;;;;;;5072954;28;20507;-70
2023/09/17 12:27:25;;;;;;;35.10;31.50;;;17.60;99.90;;;;;;5074065;28;20404;-70
2023/09/17 12:29:53;;;;;;;35.63;31.93;;;17.70;99.90;;;;;;5074258;28;20483;-70
2023/09/17 12:32:27;;;;;;;38.07;34.03;;;17.80;99.90;;;;;;5074206;28;20044;-70